createdAt,value
2017-12-06T00:00:20.037Z,15.30
2017-12-06T00:02:48.303Z,14.00
2017-12-06T00:05:15.799Z,14.07
2017-12-06T00:07:43.427Z,14.30
2017-12-06T00:10:11.091Z,14.50
2017-12-06T00:12:44.159Z,14.07
2017-12-06T00:15:17.378Z,14.87
2017-12-06T00:17:45.049Z,15.57
2017-12-06T00:20:12.563Z,14.07
2017-12-06T00:22:40.065Z,14.80
2017-12-06T00:25:08.338Z,14.13
2017-12-06T00:27:35.820Z,13.73
2017-12-06T00:30:03.312Z,14.17
2017-12-06T00:32:30.970Z,13.60
2017-12-06T00:34:58.489Z,12.93
2017-12-06T00:37:26.707Z,14.03
2017-12-06T00:39:54.224Z,14.40
2017-12-06T00:42:22.523Z,13.83
2017-12-06T00:44:50.014Z,15.20
2017-12-06T00:47:18.291Z,13.97
2017-12-06T00:49:45.773Z,12.70
2017-12-06T00:52:13.283Z,13.20
2017-12-06T00:54:40.789Z,13.43
2017-12-06T00:57:09.043Z,13.43
2017-12-06T00:59:37.365Z,14.20
2017-12-06T01:02:04.877Z,13.10
2017-12-06T01:04:32.414Z,12.93
2017-12-06T01:06:59.962Z,14.00
2017-12-06T01:09:27.476Z,14.83
2017-12-06T01:11:55.191Z,14.97
2017-12-06T01:14:22.811Z,14.10
2017-12-06T01:16:51.187Z,13.20
2017-12-06T01:19:18.687Z,14.23
2017-12-06T01:21:46.328Z,13.30
2017-12-06T01:24:13.809Z,13.73
2017-12-06T01:26:41.331Z,13.33
2017-12-06T01:29:08.806Z,13.33
2017-12-06T01:31:36.407Z,13.60
2017-12-06T01:34:04.648Z,14.00
2017-12-06T01:36:32.212Z,14.00
2017-12-06T01:38:59.710Z,13.40
2017-12-06T01:41:27.201Z,13.73
2017-12-06T01:43:56.128Z,13.17
2017-12-06T01:46:24.428Z,13.53
2017-12-06T01:48:51.913Z,13.63
2017-12-06T01:51:19.390Z,13.93
2017-12-06T01:53:47.010Z,13.60
2017-12-06T01:56:14.622Z,13.67
2017-12-06T01:58:42.108Z,14.40
2017-12-06T02:01:09.713Z,13.40
2017-12-06T02:03:37.184Z,13.30
2017-12-06T02:06:05.451Z,13.93
2017-12-06T02:08:32.948Z,13.27
2017-12-06T02:11:01.181Z,13.50
2017-12-06T02:13:28.877Z,13.67
2017-12-06T02:15:57.258Z,13.67
2017-12-06T02:18:26.143Z,14.57
2017-12-06T02:20:53.722Z,12.93
2017-12-06T02:23:21.224Z,13.40
2017-12-06T02:25:48.709Z,13.03
2017-12-06T02:28:17.008Z,13.80
2017-12-06T02:30:44.588Z,13.80
2017-12-06T02:33:12.679Z,13.90
2017-12-06T02:35:40.186Z,14.23
2017-12-06T02:38:07.673Z,13.63
2017-12-06T02:40:46.884Z,14.47
2017-12-06T02:43:26.151Z,11.87
2017-12-06T02:45:53.638Z,13.33
2017-12-06T02:48:21.182Z,13.27
2017-12-06T02:50:49.451Z,13.90
2017-12-06T02:53:17.780Z,14.20
2017-12-06T02:55:46.022Z,12.30
2017-12-06T02:58:13.525Z,13.00
2017-12-06T03:00:41.013Z,13.23
2017-12-06T03:03:08.489Z,13.87
2017-12-06T03:05:35.996Z,13.30
2017-12-06T03:08:03.480Z,13.90
2017-12-06T03:10:30.949Z,14.20
2017-12-06T03:12:58.432Z,13.17
2017-12-06T03:15:25.907Z,12.90
2017-12-06T03:17:53.390Z,13.77
2017-12-06T03:20:20.884Z,13.60
2017-12-06T03:22:48.359Z,14.30
2017-12-06T03:25:15.845Z,14.30
2017-12-06T03:27:43.356Z,15.93
2017-12-06T03:30:10.876Z,14.73
2017-12-06T03:32:38.376Z,14.30
2017-12-06T03:35:05.861Z,15.20
2017-12-06T03:37:34.092Z,14.47
2017-12-06T03:40:01.600Z,13.73
2017-12-06T03:42:29.346Z,13.47
2017-12-06T03:44:57.136Z,15.60
2017-12-06T03:47:24.633Z,15.67
2017-12-06T03:49:52.120Z,16.03
2017-12-06T03:52:19.624Z,15.10
2017-12-06T03:54:47.124Z,14.87
2017-12-06T03:57:15.404Z,15.37
2017-12-06T03:59:42.911Z,15.37
2017-12-06T04:02:11.151Z,13.97
2017-12-06T04:04:38.620Z,14.80
2017-12-06T04:07:06.126Z,14.73
2017-12-06T04:09:33.618Z,17.70
2017-12-06T04:12:01.236Z,16.20
2017-12-06T04:14:28.704Z,16.23
2017-12-06T04:16:56.982Z,15.63
2017-12-06T04:19:24.467Z,16.10
2017-12-06T04:21:51.954Z,16.10
2017-12-06T04:24:19.455Z,16.97
2017-12-06T04:26:47.704Z,16.73
2017-12-06T04:29:15.943Z,15.03
2017-12-06T04:31:43.437Z,13.87
2017-12-06T04:34:11.691Z,15.57
2017-12-06T04:36:39.946Z,16.33
2017-12-06T04:39:07.440Z,16.27
2017-12-06T04:41:34.929Z,16.30
2017-12-06T04:44:02.406Z,18.13
2017-12-06T04:46:29.899Z,16.97
2017-12-06T04:48:57.428Z,17.40
2017-12-06T04:51:24.920Z,17.60
2017-12-06T04:53:53.176Z,16.97
2017-12-06T04:56:20.680Z,16.20
2017-12-06T04:58:48.936Z,16.60
2017-12-06T05:01:16.442Z,15.93
2017-12-06T05:03:43.962Z,16.40
2017-12-06T05:06:12.221Z,15.97
2017-12-06T05:08:39.693Z,14.20
2017-12-06T05:11:07.945Z,13.53
2017-12-06T05:13:35.443Z,13.83
2017-12-06T05:16:03.690Z,13.57
2017-12-06T05:18:31.436Z,15.23
2017-12-06T05:20:59.858Z,15.23
2017-12-06T05:23:27.360Z,14.80
2017-12-06T05:25:55.674Z,15.23
2017-12-06T05:28:23.942Z,14.93
2017-12-06T05:30:51.457Z,14.07
2017-12-06T05:33:18.972Z,15.17
2017-12-06T05:35:46.469Z,15.33
2017-12-06T05:38:13.988Z,13.80
2017-12-06T05:40:41.464Z,14.30
2017-12-06T05:43:09.858Z,13.60
2017-12-06T05:45:37.341Z,13.70
2017-12-06T05:48:04.870Z,14.77
2017-12-06T05:50:33.264Z,11.70
2017-12-06T05:53:00.783Z,14.70
2017-12-06T05:55:28.277Z,13.90
2017-12-06T05:57:55.807Z,14.03
2017-12-06T06:00:23.312Z,13.47
2017-12-06T06:02:51.555Z,13.37
2017-12-06T06:05:19.037Z,15.20
2017-12-06T06:07:46.626Z,13.37
2017-12-06T06:10:14.122Z,13.03
2017-12-06T06:12:42.540Z,13.90
2017-12-06T06:15:10.548Z,13.73
2017-12-06T06:17:38.032Z,14.83
2017-12-06T06:20:08.907Z,13.93
2017-12-06T06:22:36.523Z,14.77
2017-12-06T06:25:05.166Z,13.60
2017-12-06T06:27:32.672Z,12.30
2017-12-06T06:30:00.174Z,13.10
2017-12-06T06:32:28.426Z,13.83
2017-12-06T06:34:56.858Z,14.30
2017-12-06T06:37:24.711Z,14.50
2017-12-06T06:39:53.033Z,16.00
2017-12-06T06:42:21.311Z,15.13
2017-12-06T06:44:49.070Z,14.33
2017-12-06T06:47:16.565Z,14.17
2017-12-06T06:49:44.148Z,13.93
2017-12-06T06:52:11.702Z,15.90
2017-12-06T06:54:39.967Z,14.57
2017-12-06T06:57:07.463Z,16.87
2017-12-06T06:59:35.040Z,14.07
2017-12-06T07:02:02.640Z,12.70
2017-12-06T07:04:30.121Z,13.80
2017-12-06T07:06:57.737Z,13.83
2017-12-06T07:09:25.295Z,14.43
2017-12-06T07:11:52.772Z,14.97
2017-12-06T07:14:20.283Z,14.20
2017-12-06T07:16:48.515Z,15.00
2017-12-06T07:19:16.030Z,13.23
2017-12-06T07:21:43.510Z,13.53
2017-12-06T07:24:11.851Z,13.80
2017-12-06T07:26:39.526Z,14.00
2017-12-06T07:29:07.165Z,12.53
2017-12-06T07:31:34.769Z,14.60
2017-12-06T07:34:03.074Z,14.00
2017-12-06T07:36:30.572Z,14.23
2017-12-06T07:38:58.051Z,15.33
2017-12-06T07:41:25.547Z,15.83
2017-12-06T07:43:53.049Z,14.20
2017-12-06T07:46:20.576Z,14.00
2017-12-06T07:48:48.102Z,13.10
2017-12-06T07:51:16.376Z,13.73
2017-12-06T07:53:43.866Z,14.00
2017-12-06T07:56:11.497Z,12.53
2017-12-06T07:58:44.549Z,13.83
2017-12-06T08:01:12.062Z,14.20
2017-12-06T08:03:39.610Z,12.77
2017-12-06T08:06:07.094Z,13.70
2017-12-06T08:08:34.579Z,13.70
2017-12-06T08:11:02.175Z,12.77
2017-12-06T08:13:29.683Z,12.33
2017-12-06T08:15:57.296Z,14.73
2017-12-06T08:18:24.782Z,14.67
2017-12-06T08:20:52.282Z,15.67
2017-12-06T08:23:19.772Z,12.93
2017-12-06T08:25:47.252Z,14.43
2017-12-06T08:28:14.752Z,14.70
2017-12-06T08:30:42.232Z,13.77
2017-12-06T08:33:09.801Z,13.40
2017-12-06T08:35:37.299Z,13.60
2017-12-06T08:38:05.042Z,15.10
2017-12-06T08:40:32.558Z,14.70
2017-12-06T08:43:00.808Z,14.93
2017-12-06T08:45:28.349Z,17.27
2017-12-06T08:47:56.618Z,15.47
2017-12-06T08:50:24.097Z,13.17
2017-12-06T08:52:51.658Z,15.87
2017-12-06T08:55:19.251Z,14.00
2017-12-06T08:57:47.505Z,12.93
2017-12-06T09:00:15.220Z,14.90
2017-12-06T09:02:42.717Z,13.60
2017-12-06T09:05:10.206Z,14.83
2017-12-06T09:07:37.743Z,13.93
2017-12-06T09:10:05.278Z,13.77
2017-12-06T09:12:32.761Z,14.20
2017-12-06T09:15:00.257Z,14.00
2017-12-06T09:17:27.755Z,14.50
2017-12-06T09:19:55.241Z,14.30
2017-12-06T09:22:22.772Z,14.60
2017-12-06T09:24:51.147Z,13.10
2017-12-06T09:27:18.629Z,12.70
2017-12-06T09:29:46.107Z,11.80
2017-12-06T09:32:13.720Z,12.13
2017-12-06T09:34:41.255Z,12.03
2017-12-06T09:37:08.747Z,12.93
2017-12-06T09:39:36.280Z,12.80
2017-12-06T09:42:03.781Z,11.50
2017-12-06T09:44:32.068Z,10.87
2017-12-06T09:46:59.537Z,9.90
2017-12-06T09:49:27.065Z,10.23
2017-12-06T09:51:55.315Z,10.13
2017-12-06T09:54:22.806Z,9.77
2017-12-06T09:56:50.328Z,9.17
2017-12-06T09:59:17.828Z,10.57
2017-12-06T10:01:45.335Z,9.57
2017-12-06T10:04:12.818Z,10.57
2017-12-06T10:06:40.363Z,10.40
2017-12-06T10:09:07.978Z,9.50
2017-12-06T10:11:35.657Z,8.63
2017-12-06T10:14:03.133Z,8.10
2017-12-06T10:16:30.716Z,8.33
2017-12-06T10:18:58.189Z,7.97
2017-12-06T10:21:25.730Z,7.70
2017-12-06T10:23:53.341Z,9.00
2017-12-06T10:26:21.608Z,8.97
2017-12-06T10:28:49.085Z,8.40
2017-12-06T10:31:16.571Z,7.83
2017-12-06T10:33:44.063Z,7.20
2017-12-06T10:36:12.467Z,7.70
2017-12-06T10:38:39.986Z,6.20
2017-12-06T10:41:07.849Z,9.70
2017-12-06T10:43:36.167Z,10.47
2017-12-06T10:46:04.652Z,10.90
2017-12-06T10:48:32.957Z,11.67
2017-12-06T10:51:00.472Z,11.67
2017-12-06T10:53:28.806Z,11.90
2017-12-06T10:55:56.529Z,11.50
2017-12-06T10:58:24.772Z,9.83
2017-12-06T11:00:53.083Z,9.23
2017-12-06T11:03:20.560Z,9.33
2017-12-06T11:05:48.036Z,8.47
2017-12-06T11:08:15.551Z,9.80
2017-12-06T11:10:43.018Z,9.00
2017-12-06T11:13:10.495Z,8.50
2017-12-06T11:15:39.045Z,8.07
2017-12-06T11:18:06.556Z,9.47
2017-12-06T11:20:34.784Z,9.63
2017-12-06T11:23:03.349Z,9.00
2017-12-06T11:25:30.829Z,10.83
2017-12-06T11:27:58.293Z,9.70
2017-12-06T11:30:25.824Z,10.00
2017-12-06T11:32:53.329Z,11.00
2017-12-06T11:35:20.818Z,11.67
2017-12-06T11:37:48.343Z,12.43
2017-12-06T11:40:15.866Z,9.70
2017-12-06T11:42:43.393Z,10.13
2017-12-06T11:45:10.890Z,9.83
2017-12-06T11:47:38.381Z,9.97
2017-12-06T11:50:05.866Z,10.10
2017-12-06T11:52:34.610Z,10.23
2017-12-06T11:55:02.161Z,11.17
2017-12-06T11:57:29.654Z,11.63
2017-12-06T11:59:57.937Z,11.60
2017-12-06T12:02:25.668Z,13.07
2017-12-06T12:04:53.151Z,12.37
2017-12-06T12:07:20.643Z,13.10
2017-12-06T12:09:48.906Z,14.13
2017-12-06T12:12:16.397Z,13.80
2017-12-06T12:14:43.967Z,14.40
2017-12-06T12:17:11.451Z,12.70
2017-12-06T12:19:38.953Z,13.10
2017-12-06T12:22:06.459Z,13.50
2017-12-06T12:24:35.010Z,13.60
2017-12-06T12:27:02.498Z,13.67
2017-12-06T12:29:30.776Z,12.83
2017-12-06T12:31:58.287Z,13.87
2017-12-06T12:34:25.800Z,14.27
2017-12-06T12:36:53.284Z,13.67
2017-12-06T12:39:21.647Z,13.90
2017-12-06T12:41:49.160Z,14.93
2017-12-06T12:44:17.038Z,15.60
2017-12-06T12:46:44.593Z,15.57
2017-12-06T12:49:12.080Z,14.20
2017-12-06T12:51:40.456Z,14.17
2017-12-06T12:54:07.964Z,13.13
2017-12-06T12:56:35.529Z,16.37
2017-12-06T12:59:03.051Z,16.57
2017-12-06T13:01:30.556Z,15.10
2017-12-06T13:03:58.817Z,16.13
2017-12-06T13:06:26.301Z,18.93
2017-12-06T13:08:54.559Z,18.53
2017-12-06T13:11:22.811Z,18.87
2017-12-06T13:13:50.326Z,19.60
2017-12-06T13:16:17.845Z,17.63
2017-12-06T13:18:45.483Z,17.37
2017-12-06T13:21:13.031Z,18.10
2017-12-06T13:23:41.505Z,18.83
2017-12-06T13:26:09.094Z,17.37
2017-12-06T13:28:36.684Z,19.20
2017-12-06T13:31:04.213Z,20.00
2017-12-06T13:33:31.757Z,16.10
2017-12-06T13:35:59.365Z,18.50
2017-12-06T13:38:27.648Z,18.87
2017-12-06T13:40:55.234Z,17.17
2017-12-06T13:43:22.717Z,15.37
2017-12-06T13:45:50.423Z,16.20
2017-12-06T13:48:18.756Z,16.50
2017-12-06T13:50:46.358Z,14.77
2017-12-06T13:53:13.866Z,12.47
2017-12-06T13:55:42.313Z,12.47
2017-12-06T13:58:09.830Z,12.40
2017-12-06T14:00:37.338Z,12.10
2017-12-06T14:03:04.833Z,15.10
2017-12-06T14:05:32.332Z,14.67
2017-12-06T14:08:00.564Z,14.83
2017-12-06T14:10:28.118Z,17.60
2017-12-06T14:12:56.411Z,13.40
2017-12-06T14:15:24.293Z,12.90
2017-12-06T14:17:51.821Z,12.00
2017-12-06T14:20:20.186Z,12.50
2017-12-06T14:22:47.935Z,10.70
2017-12-06T14:25:15.430Z,11.40
2017-12-06T14:27:42.929Z,11.67
2017-12-06T14:30:10.519Z,11.83
2017-12-06T14:32:38.005Z,12.93
2017-12-06T14:35:05.520Z,13.70
2017-12-06T14:37:33.048Z,13.63
2017-12-06T14:40:00.565Z,14.37
2017-12-06T14:42:28.092Z,13.73
2017-12-06T14:44:55.615Z,14.47
2017-12-06T14:47:24.055Z,13.90
2017-12-06T14:49:51.645Z,13.57
2017-12-06T14:52:19.189Z,12.77
2017-12-06T14:54:46.706Z,13.00
2017-12-06T14:57:14.393Z,14.17
2017-12-06T14:59:41.887Z,14.20
2017-12-06T15:02:09.410Z,14.73
2017-12-06T15:04:37.653Z,15.00
2017-12-06T15:07:05.161Z,14.83
2017-12-06T15:09:32.672Z,15.70
2017-12-06T15:12:00.922Z,16.43
2017-12-06T15:14:28.642Z,17.60
2017-12-06T15:16:56.172Z,18.97
2017-12-06T15:19:23.867Z,18.77
2017-12-06T15:21:51.392Z,17.70
2017-12-06T15:24:18.913Z,19.40
2017-12-06T15:26:47.237Z,18.20
2017-12-06T15:29:14.733Z,16.63
2017-12-06T15:31:42.207Z,17.10
2017-12-06T15:34:09.704Z,15.93
2017-12-06T15:36:37.177Z,14.90
2017-12-06T15:39:04.704Z,14.57
2017-12-06T15:41:33.072Z,13.50
2017-12-06T15:44:00.551Z,14.33
2017-12-06T15:46:28.081Z,15.23
2017-12-06T15:48:55.596Z,14.23
2017-12-06T15:51:23.872Z,13.80
2017-12-06T15:53:51.467Z,17.43
2017-12-06T15:56:19.743Z,14.57
2017-12-06T15:58:47.291Z,15.70
2017-12-06T16:01:14.785Z,16.60
2017-12-06T16:03:42.281Z,15.63
2017-12-06T16:06:09.773Z,17.40
2017-12-06T16:08:37.289Z,15.90
2017-12-06T16:11:04.794Z,15.77
2017-12-06T16:13:33.048Z,15.50
2017-12-06T16:16:00.550Z,15.13
2017-12-06T16:18:28.033Z,14.67
2017-12-06T16:20:55.534Z,14.53
2017-12-06T16:23:23.778Z,15.63
2017-12-06T16:25:51.267Z,15.77
2017-12-06T16:28:18.770Z,14.47
2017-12-06T16:30:46.397Z,15.40
2017-12-06T16:33:14.795Z,15.07
2017-12-06T16:35:54.872Z,14.57
2017-12-06T16:38:22.452Z,15.23
2017-12-06T16:40:50.840Z,16.93
2017-12-06T16:43:18.375Z,17.27
2017-12-06T16:45:45.908Z,17.47
2017-12-06T16:48:13.534Z,16.70
2017-12-06T16:50:41.047Z,18.87
2017-12-06T16:53:08.553Z,17.40
2017-12-06T16:55:36.126Z,18.47
2017-12-06T16:58:03.764Z,20.50
2017-12-06T17:00:32.079Z,19.07
2017-12-06T17:03:00.334Z,18.67
2017-12-06T17:05:28.669Z,17.27
2017-12-06T17:07:57.017Z,19.67
2017-12-06T17:10:24.520Z,19.23
2017-12-06T17:12:52.259Z,19.23
2017-12-06T17:15:19.854Z,19.30
2017-12-06T17:17:47.357Z,19.73
2017-12-06T17:20:14.918Z,20.17
2017-12-06T17:22:43.155Z,19.80
2017-12-06T17:25:10.690Z,18.07
2017-12-06T17:27:38.217Z,19.63
2017-12-06T17:30:17.876Z,20.80
2017-12-06T17:32:45.366Z,20.43
2017-12-06T17:35:13.670Z,20.57
2017-12-06T17:37:41.184Z,21.07
2017-12-06T17:40:08.696Z,21.47
2017-12-06T17:42:36.229Z,22.10
2017-12-06T17:45:03.767Z,21.90
2017-12-06T17:47:31.380Z,22.50
2017-12-06T17:50:10.711Z,23.77
2017-12-06T17:52:39.230Z,22.30
2017-12-06T17:55:06.714Z,20.10
2017-12-06T17:57:35.079Z,20.97
2017-12-06T18:00:02.570Z,22.53
2017-12-06T18:02:30.064Z,21.80
2017-12-06T18:04:57.600Z,20.27
2017-12-06T18:07:25.093Z,22.47
2017-12-06T18:09:53.353Z,22.27
2017-12-06T18:12:20.903Z,22.80
2017-12-06T18:14:48.403Z,22.10
2017-12-06T18:17:15.896Z,22.00
2017-12-06T18:19:43.446Z,23.27
2017-12-06T18:22:10.922Z,23.63
2017-12-06T18:24:38.416Z,23.13
2017-12-06T18:27:05.989Z,23.73
2017-12-06T18:29:33.458Z,22.27
2017-12-06T18:32:01.099Z,23.53
2017-12-06T18:34:29.356Z,22.70
2017-12-06T18:36:56.987Z,24.07
2017-12-06T18:39:25.398Z,23.00
2017-12-06T18:41:53.692Z,23.60
2017-12-06T18:44:22.057Z,23.37
2017-12-06T18:46:49.760Z,21.90
2017-12-06T18:49:18.025Z,23.73
2017-12-06T18:51:45.555Z,22.47
2017-12-06T18:54:13.067Z,23.30
2017-12-06T18:56:41.326Z,21.53
2017-12-06T18:59:09.030Z,21.37
2017-12-06T19:01:37.284Z,23.80
2017-12-06T19:04:04.759Z,23.47
2017-12-06T19:06:32.270Z,23.10
2017-12-06T19:08:59.756Z,23.07
2017-12-06T19:11:27.286Z,22.30
2017-12-06T19:13:54.902Z,23.27
2017-12-06T19:16:22.457Z,24.47
2017-12-06T19:18:51.131Z,26.33
2017-12-06T19:21:18.790Z,24.47
2017-12-06T19:23:46.317Z,25.30
2017-12-06T19:26:13.853Z,22.50
2017-12-06T19:28:41.374Z,24.73
2017-12-06T19:31:08.867Z,22.53
2017-12-06T19:33:36.373Z,24.20
2017-12-06T19:36:04.653Z,22.07
2017-12-06T19:38:32.175Z,23.70
2017-12-06T19:41:00.431Z,23.33
2017-12-06T19:43:27.947Z,24.10
2017-12-06T19:45:55.422Z,25.40
2017-12-06T19:48:23.018Z,23.47
2017-12-06T19:50:51.270Z,24.70
2017-12-06T19:53:18.790Z,27.03
2017-12-06T19:55:46.367Z,25.60
2017-12-06T19:58:14.023Z,26.20
2017-12-06T20:00:41.527Z,23.87
2017-12-06T20:03:09.098Z,24.40
2017-12-06T20:05:36.642Z,24.67
2017-12-06T20:08:04.902Z,23.50
2017-12-06T20:10:32.416Z,27.13
2017-12-06T20:13:00.675Z,25.17
2017-12-06T20:15:28.952Z,25.07
2017-12-06T20:17:56.458Z,23.73
2017-12-06T20:20:24.165Z,24.03
2017-12-06T20:22:51.675Z,24.60
2017-12-06T20:25:19.985Z,22.80
2017-12-06T20:27:47.517Z,24.43
2017-12-06T20:30:15.035Z,24.07
2017-12-06T20:32:42.533Z,24.73
2017-12-06T20:35:10.018Z,24.30
2017-12-06T20:37:38.309Z,23.80
2017-12-06T20:40:05.818Z,23.70
2017-12-06T20:42:34.100Z,24.40
2017-12-06T20:45:03.324Z,22.90
2017-12-06T20:47:30.854Z,24.00
2017-12-06T20:49:58.362Z,23.60
2017-12-06T20:52:25.889Z,25.13
2017-12-06T20:54:54.205Z,24.27
2017-12-06T20:57:22.218Z,25.07
2017-12-06T20:59:49.886Z,24.10
2017-12-06T21:02:18.163Z,23.80
2017-12-06T21:04:45.693Z,24.87
2017-12-06T21:07:13.954Z,23.37
2017-12-06T21:09:41.454Z,22.23
2017-12-06T21:12:08.929Z,23.03
2017-12-06T21:14:36.433Z,24.00
2017-12-06T21:17:04.821Z,22.20
2017-12-06T21:19:32.317Z,24.03
2017-12-06T21:21:59.850Z,22.03
2017-12-06T21:24:27.333Z,24.17
2017-12-06T21:26:54.831Z,22.50
2017-12-06T21:29:22.360Z,25.52
2017-12-06T21:31:49.840Z,23.20
2017-12-06T21:34:18.216Z,24.17
2017-12-06T21:36:45.772Z,24.07
2017-12-06T21:39:13.283Z,23.17
2017-12-06T21:41:41.557Z,22.00
2017-12-06T21:44:09.048Z,24.80
2017-12-06T21:46:36.547Z,23.57
2017-12-06T21:49:04.038Z,23.97
2017-12-06T21:51:31.521Z,24.40
2017-12-06T21:53:59.011Z,21.37
2017-12-06T21:56:27.263Z,23.90
2017-12-06T21:58:54.769Z,24.87
2017-12-06T22:01:22.240Z,23.20
2017-12-06T22:03:50.583Z,24.25
2017-12-06T22:06:18.895Z,24.67
2017-12-06T22:08:47.192Z,24.40
2017-12-06T22:11:14.672Z,24.08
2017-12-06T22:13:42.970Z,24.17
2017-12-06T22:16:10.461Z,24.45
2017-12-06T22:18:38.722Z,22.87
2017-12-06T22:21:06.241Z,25.88
2017-12-06T22:23:34.488Z,25.40
2017-12-06T22:26:01.978Z,23.30
2017-12-06T22:28:29.488Z,22.92
2017-12-06T22:30:56.984Z,23.17
2017-12-06T22:33:25.255Z,25.02
2017-12-06T22:35:52.767Z,25.12
2017-12-06T22:38:20.261Z,24.20
2017-12-06T22:40:47.762Z,24.63
2017-12-06T22:43:16.057Z,23.45
2017-12-06T22:45:44.450Z,23.85
2017-12-06T22:48:11.975Z,24.52
2017-12-06T22:50:39.534Z,22.15
2017-12-06T22:53:07.788Z,20.90
2017-12-06T22:55:35.294Z,24.10
2017-12-06T22:58:02.781Z,22.05
2017-12-06T23:00:30.300Z,24.12
2017-12-06T23:02:58.551Z,23.95
2017-12-06T23:05:26.810Z,24.98
2017-12-06T23:07:54.298Z,23.58
2017-12-06T23:10:21.796Z,23.83
2017-12-06T23:12:50.217Z,25.00
2017-12-06T23:15:17.829Z,24.80
2017-12-06T23:17:45.433Z,26.85
2017-12-06T23:20:13.700Z,25.52
2017-12-06T23:22:41.188Z,24.73
2017-12-06T23:25:08.706Z,25.10
2017-12-06T23:27:36.986Z,24.37
2017-12-06T23:32:43.543Z,24.63
2017-12-06T23:35:11.789Z,26.15
2017-12-06T23:37:39.319Z,24.33
2017-12-06T23:40:07.586Z,28.73
2017-12-06T23:42:35.086Z,24.30
2017-12-06T23:45:02.693Z,24.95
2017-12-06T23:47:30.958Z,24.42
2017-12-06T23:49:58.444Z,24.65
2017-12-06T23:52:25.933Z,26.20
2017-12-06T23:54:54.196Z,26.60
2017-12-06T23:57:21.721Z,23.05
2017-12-06T23:59:49.445Z,24.05
